sensor_id;sensor_type;location;lat;lon;timestamp;P1;durP1;ratioP1;P2;durP2;ratioP2
68993;SDS011;56054;50.968;5.816;2022-12-10T00:02:06;38.03;;;19.17;;
68993;SDS011;56054;50.968;5.816;2022-12-10T00:05:13;39.70;;;18.20;;
68993;SDS011;56054;50.968;5.816;2022-12-10T00:08:39;46.07;;;20.50;;
68993;SDS011;56054;50.968;5.816;2022-12-10T00:11:46;42.60;;;19.17;;
68993;SDS011;56054;50.968;5.816;2022-12-10T00:14:53;42.07;;;18.20;;
68993;SDS011;56054;50.968;5.816;2022-12-10T00:18:00;38.03;;;19.30;;
68993;SDS011;56054;50.968;5.816;2022-12-10T00:21:08;43.63;;;18.53;;
68993;SDS011;56054;50.968;5.816;2022-12-10T00:24:20;42.90;;;19.47;;
68993;SDS011;56054;50.968;5.816;2022-12-10T00:27:27;42.83;;;18.23;;
68993;SDS011;56054;50.968;5.816;2022-12-10T00:30:34;49.73;;;20.50;;
68993;SDS011;56054;50.968;5.816;2022-12-10T00:33:44;47.77;;;19.77;;
68993;SDS011;56054;50.968;5.816;2022-12-10T00:36:51;43.70;;;19.67;;
68993;SDS011;56054;50.968;5.816;2022-12-10T00:39:58;45.37;;;21.73;;
68993;SDS011;56054;50.968;5.816;2022-12-10T00:43:05;53.97;;;21.23;;
68993;SDS011;56054;50.968;5.816;2022-12-10T00:46:14;48.03;;;21.17;;
68993;SDS011;56054;50.968;5.816;2022-12-10T00:49:22;47.13;;;21.57;;
68993;SDS011;56054;50.968;5.816;2022-12-10T00:52:29;50.53;;;21.90;;
68993;SDS011;56054;50.968;5.816;2022-12-10T00:55:36;43.87;;;21.00;;
68993;SDS011;56054;50.968;5.816;2022-12-10T00:58:58;45.77;;;22.13;;
68993;SDS011;56054;50.968;5.816;2022-12-10T01:02:07;48.03;;;22.20;;
68993;SDS011;56054;50.968;5.816;2022-12-10T01:05:14;44.97;;;20.97;;
68993;SDS011;56054;50.968;5.816;2022-12-10T01:08:21;46.50;;;21.43;;
68993;SDS011;56054;50.968;5.816;2022-12-10T01:11:29;50.90;;;21.00;;
68993;SDS011;56054;50.968;5.816;2022-12-10T01:14:38;51.77;;;20.63;;
68993;SDS011;56054;50.968;5.816;2022-12-10T01:17:45;49.40;;;19.87;;
68993;SDS011;56054;50.968;5.816;2022-12-10T01:20:52;52.80;;;23.07;;
68993;SDS011;56054;50.968;5.816;2022-12-10T01:23:59;53.70;;;21.93;;
68993;SDS011;56054;50.968;5.816;2022-12-10T01:27:06;47.90;;;22.53;;
68993;SDS011;56054;50.968;5.816;2022-12-10T01:30:13;56.00;;;24.23;;
68993;SDS011;56054;50.968;5.816;2022-12-10T01:33:20;53.50;;;23.63;;
68993;SDS011;56054;50.968;5.816;2022-12-10T01:36:37;52.83;;;24.50;;
68993;SDS011;56054;50.968;5.816;2022-12-10T01:39:46;48.80;;;24.53;;
68993;SDS011;56054;50.968;5.816;2022-12-10T01:42:53;54.67;;;24.07;;
68993;SDS011;56054;50.968;5.816;2022-12-10T01:46:03;55.87;;;23.87;;
68993;SDS011;56054;50.968;5.816;2022-12-10T01:49:33;51.90;;;23.40;;
68993;SDS011;56054;50.968;5.816;2022-12-10T01:53:00;48.87;;;22.57;;
68993;SDS011;56054;50.968;5.816;2022-12-10T01:56:09;50.80;;;21.90;;
68993;SDS011;56054;50.968;5.816;2022-12-10T01:59:22;53.40;;;22.13;;
68993;SDS011;56054;50.968;5.816;2022-12-10T02:02:54;50.90;;;23.33;;
68993;SDS011;56054;50.968;5.816;2022-12-10T02:16:47;58.63;;;24.03;;
68993;SDS011;56054;50.968;5.816;2022-12-10T02:23:30;54.57;;;24.53;;
68993;SDS011;56054;50.968;5.816;2022-12-10T02:30:01;50.73;;;21.87;;
68993;SDS011;56054;50.968;5.816;2022-12-10T02:33:13;50.30;;;21.13;;
68993;SDS011;56054;50.968;5.816;2022-12-10T02:36:27;51.13;;;23.07;;
68993;SDS011;56054;50.968;5.816;2022-12-10T02:39:39;47.00;;;22.40;;
68993;SDS011;56054;50.968;5.816;2022-12-10T02:42:54;46.17;;;21.33;;
68993;SDS011;56054;50.968;5.816;2022-12-10T02:46:06;48.60;;;22.53;;
68993;SDS011;56054;50.968;5.816;2022-12-10T02:49:15;49.50;;;21.17;;
68993;SDS011;56054;50.968;5.816;2022-12-10T02:52:24;45.90;;;20.93;;
68993;SDS011;56054;50.968;5.816;2022-12-10T03:08:51;42.03;;;19.60;;
68993;SDS011;56054;50.968;5.816;2022-12-10T03:12:08;47.87;;;21.70;;
68993;SDS011;56054;50.968;5.816;2022-12-10T03:15:23;44.57;;;21.40;;
68993;SDS011;56054;50.968;5.816;2022-12-10T03:18:31;49.90;;;20.03;;
68993;SDS011;56054;50.968;5.816;2022-12-10T03:21:41;42.70;;;19.37;;
68993;SDS011;56054;50.968;5.816;2022-12-10T03:24:51;42.80;;;20.60;;
68993;SDS011;56054;50.968;5.816;2022-12-10T03:27:59;40.37;;;18.10;;
68993;SDS011;56054;50.968;5.816;2022-12-10T03:31:10;52.87;;;20.83;;
68993;SDS011;56054;50.968;5.816;2022-12-10T03:34:19;48.60;;;21.70;;
68993;SDS011;56054;50.968;5.816;2022-12-10T03:37:27;52.63;;;21.37;;
68993;SDS011;56054;50.968;5.816;2022-12-10T03:40:35;47.80;;;21.73;;
68993;SDS011;56054;50.968;5.816;2022-12-10T03:43:55;49.10;;;20.80;;
68993;SDS011;56054;50.968;5.816;2022-12-10T03:47:05;52.43;;;23.10;;
68993;SDS011;56054;50.968;5.816;2022-12-10T03:50:13;52.60;;;22.93;;
68993;SDS011;56054;50.968;5.816;2022-12-10T03:53:20;48.90;;;20.83;;
68993;SDS011;56054;50.968;5.816;2022-12-10T03:56:27;60.37;;;24.47;;
68993;SDS011;56054;50.968;5.816;2022-12-10T03:59:34;52.17;;;23.13;;
68993;SDS011;56054;50.968;5.816;2022-12-10T04:02:41;48.00;;;22.77;;
68993;SDS011;56054;50.968;5.816;2022-12-10T04:05:48;52.50;;;22.57;;
68993;SDS011;56054;50.968;5.816;2022-12-10T04:08:55;54.83;;;25.63;;
68993;SDS011;56054;50.968;5.816;2022-12-10T04:12:02;57.80;;;25.23;;
68993;SDS011;56054;50.968;5.816;2022-12-10T04:15:09;55.97;;;24.07;;
68993;SDS011;56054;50.968;5.816;2022-12-10T04:18:16;54.97;;;24.77;;
68993;SDS011;56054;50.968;5.816;2022-12-10T04:21:23;51.80;;;23.50;;
68993;SDS011;56054;50.968;5.816;2022-12-10T04:24:31;57.07;;;25.00;;
68993;SDS011;56054;50.968;5.816;2022-12-10T04:27:39;56.10;;;24.00;;
68993;SDS011;56054;50.968;5.816;2022-12-10T04:30:46;59.33;;;24.47;;
68993;SDS011;56054;50.968;5.816;2022-12-10T04:33:53;57.67;;;24.47;;
68993;SDS011;56054;50.968;5.816;2022-12-10T04:37:00;50.20;;;22.73;;
68993;SDS011;56054;50.968;5.816;2022-12-10T04:40:08;48.77;;;23.23;;
68993;SDS011;56054;50.968;5.816;2022-12-10T04:43:16;48.53;;;22.20;;
68993;SDS011;56054;50.968;5.816;2022-12-10T04:46:23;56.83;;;23.67;;
68993;SDS011;56054;50.968;5.816;2022-12-10T04:49:30;53.80;;;22.50;;
68993;SDS011;56054;50.968;5.816;2022-12-10T04:52:37;47.97;;;23.07;;
68993;SDS011;56054;50.968;5.816;2022-12-10T04:55:44;58.97;;;24.50;;
68993;SDS011;56054;50.968;5.816;2022-12-10T04:58:51;54.33;;;25.30;;
68993;SDS011;56054;50.968;5.816;2022-12-10T05:01:58;56.17;;;24.97;;
68993;SDS011;56054;50.968;5.816;2022-12-10T05:05:05;59.17;;;26.33;;
68993;SDS011;56054;50.968;5.816;2022-12-10T05:08:12;55.83;;;24.97;;
68993;SDS011;56054;50.968;5.816;2022-12-10T05:11:20;55.53;;;22.20;;
68993;SDS011;56054;50.968;5.816;2022-12-10T05:14:29;58.93;;;24.17;;
68993;SDS011;56054;50.968;5.816;2022-12-10T05:17:36;57.70;;;23.43;;
68993;SDS011;56054;50.968;5.816;2022-12-10T05:20:43;51.50;;;23.40;;
68993;SDS011;56054;50.968;5.816;2022-12-10T05:23:51;64.80;;;27.13;;
68993;SDS011;56054;50.968;5.816;2022-12-10T05:27:05;56.83;;;22.33;;
68993;SDS011;56054;50.968;5.816;2022-12-10T05:30:12;58.00;;;27.50;;
68993;SDS011;56054;50.968;5.816;2022-12-10T05:33:19;61.47;;;24.13;;
68993;SDS011;56054;50.968;5.816;2022-12-10T05:36:27;61.67;;;24.23;;
68993;SDS011;56054;50.968;5.816;2022-12-10T05:39:35;56.73;;;23.60;;
68993;SDS011;56054;50.968;5.816;2022-12-10T05:42:42;59.57;;;23.90;;
68993;SDS011;56054;50.968;5.816;2022-12-10T05:45:49;65.93;;;25.63;;
68993;SDS011;56054;50.968;5.816;2022-12-10T05:48:56;69.77;;;26.73;;
68993;SDS011;56054;50.968;5.816;2022-12-10T05:52:03;49.33;;;22.33;;
68993;SDS011;56054;50.968;5.816;2022-12-10T05:55:10;50.60;;;22.43;;
68993;SDS011;56054;50.968;5.816;2022-12-10T05:58:17;55.67;;;22.67;;
68993;SDS011;56054;50.968;5.816;2022-12-10T06:01:25;59.93;;;24.70;;
68993;SDS011;56054;50.968;5.816;2022-12-10T06:04:34;63.87;;;24.53;;
68993;SDS011;56054;50.968;5.816;2022-12-10T06:07:41;59.93;;;24.30;;
68993;SDS011;56054;50.968;5.816;2022-12-10T06:10:48;67.90;;;25.67;;
68993;SDS011;56054;50.968;5.816;2022-12-10T06:13:56;66.93;;;24.30;;
68993;SDS011;56054;50.968;5.816;2022-12-10T06:17:03;68.03;;;24.93;;
68993;SDS011;56054;50.968;5.816;2022-12-10T06:20:10;70.63;;;26.33;;
68993;SDS011;56054;50.968;5.816;2022-12-10T06:23:17;70.80;;;25.63;;
68993;SDS011;56054;50.968;5.816;2022-12-10T06:26:24;71.63;;;27.00;;
68993;SDS011;56054;50.968;5.816;2022-12-10T06:29:39;79.10;;;25.63;;
68993;SDS011;56054;50.968;5.816;2022-12-10T06:32:46;66.27;;;25.13;;
68993;SDS011;56054;50.968;5.816;2022-12-10T06:35:53;69.20;;;24.77;;
68993;SDS011;56054;50.968;5.816;2022-12-10T06:39:00;76.63;;;27.90;;
68993;SDS011;56054;50.968;5.816;2022-12-10T06:42:07;75.23;;;27.17;;
68993;SDS011;56054;50.968;5.816;2022-12-10T06:45:14;77.83;;;27.50;;
68993;SDS011;56054;50.968;5.816;2022-12-10T06:48:21;73.50;;;26.67;;
68993;SDS011;56054;50.968;5.816;2022-12-10T06:51:28;76.23;;;26.97;;
68993;SDS011;56054;50.968;5.816;2022-12-10T06:54:35;63.73;;;24.47;;
68993;SDS011;56054;50.968;5.816;2022-12-10T06:57:42;78.03;;;27.57;;
68993;SDS011;56054;50.968;5.816;2022-12-10T07:00:49;71.77;;;24.50;;
68993;SDS011;56054;50.968;5.816;2022-12-10T07:03:56;70.90;;;25.40;;
68993;SDS011;56054;50.968;5.816;2022-12-10T07:07:04;67.77;;;24.23;;
68993;SDS011;56054;50.968;5.816;2022-12-10T07:10:13;63.57;;;25.13;;
68993;SDS011;56054;50.968;5.816;2022-12-10T07:13:21;66.43;;;25.90;;
68993;SDS011;56054;50.968;5.816;2022-12-10T07:16:31;63.33;;;26.10;;
68993;SDS011;56054;50.968;5.816;2022-12-10T07:19:39;59.57;;;23.63;;
68993;SDS011;56054;50.968;5.816;2022-12-10T07:22:46;73.00;;;25.17;;
68993;SDS011;56054;50.968;5.816;2022-12-10T07:25:54;66.30;;;25.80;;
68993;SDS011;56054;50.968;5.816;2022-12-10T07:29:02;66.93;;;26.37;;
68993;SDS011;56054;50.968;5.816;2022-12-10T07:32:10;71.80;;;26.80;;
68993;SDS011;56054;50.968;5.816;2022-12-10T07:35:17;66.73;;;25.17;;
68993;SDS011;56054;50.968;5.816;2022-12-10T07:38:24;69.63;;;25.13;;
68993;SDS011;56054;50.968;5.816;2022-12-10T07:41:32;66.73;;;25.67;;
68993;SDS011;56054;50.968;5.816;2022-12-10T07:44:39;51.93;;;23.40;;
68993;SDS011;56054;50.968;5.816;2022-12-10T07:47:46;57.37;;;22.97;;
68993;SDS011;56054;50.968;5.816;2022-12-10T07:50:56;54.77;;;22.73;;
68993;SDS011;56054;50.968;5.816;2022-12-10T07:54:04;54.30;;;23.27;;
68993;SDS011;56054;50.968;5.816;2022-12-10T07:57:11;54.57;;;22.43;;
68993;SDS011;56054;50.968;5.816;2022-12-10T08:00:18;59.70;;;23.20;;
68993;SDS011;56054;50.968;5.816;2022-12-10T08:03:25;52.87;;;21.00;;
68993;SDS011;56054;50.968;5.816;2022-12-10T08:06:32;48.80;;;22.73;;
68993;SDS011;56054;50.968;5.816;2022-12-10T08:09:39;56.47;;;22.83;;
68993;SDS011;56054;50.968;5.816;2022-12-10T08:12:46;56.03;;;22.30;;
68993;SDS011;56054;50.968;5.816;2022-12-10T08:15:53;54.97;;;23.30;;
68993;SDS011;56054;50.968;5.816;2022-12-10T08:19:00;61.07;;;23.07;;
68993;SDS011;56054;50.968;5.816;2022-12-10T08:22:07;62.20;;;23.57;;
68993;SDS011;56054;50.968;5.816;2022-12-10T08:32:55;53.00;;;22.57;;
68993;SDS011;56054;50.968;5.816;2022-12-10T08:39:30;63.27;;;24.07;;
68993;SDS011;56054;50.968;5.816;2022-12-10T08:42:37;58.20;;;22.30;;
68993;SDS011;56054;50.968;5.816;2022-12-10T08:45:44;57.20;;;23.27;;
68993;SDS011;56054;50.968;5.816;2022-12-10T08:48:51;51.50;;;21.17;;
68993;SDS011;56054;50.968;5.816;2022-12-10T08:52:01;53.53;;;22.50;;
68993;SDS011;56054;50.968;5.816;2022-12-10T08:55:29;60.60;;;23.97;;
68993;SDS011;56054;50.968;5.816;2022-12-10T08:58:37;59.47;;;26.13;;
68993;SDS011;56054;50.968;5.816;2022-12-10T09:01:46;54.43;;;22.97;;
68993;SDS011;56054;50.968;5.816;2022-12-10T09:04:53;57.43;;;22.23;;
68993;SDS011;56054;50.968;5.816;2022-12-10T09:08:00;43.60;;;19.43;;
68993;SDS011;56054;50.968;5.816;2022-12-10T09:11:08;48.13;;;19.67;;
68993;SDS011;56054;50.968;5.816;2022-12-10T09:14:16;46.37;;;19.90;;
68993;SDS011;56054;50.968;5.816;2022-12-10T09:17:23;42.10;;;18.83;;
68993;SDS011;56054;50.968;5.816;2022-12-10T09:20:30;48.63;;;21.07;;
68993;SDS011;56054;50.968;5.816;2022-12-10T09:23:37;52.30;;;20.90;;
68993;SDS011;56054;50.968;5.816;2022-12-10T09:26:46;38.03;;;19.23;;
68993;SDS011;56054;50.968;5.816;2022-12-10T09:30:15;46.40;;;19.87;;
68993;SDS011;56054;50.968;5.816;2022-12-10T09:33:50;46.63;;;19.97;;
68993;SDS011;56054;50.968;5.816;2022-12-10T09:37:10;48.13;;;20.60;;
68993;SDS011;56054;50.968;5.816;2022-12-10T09:52:00;39.37;;;17.37;;
68993;SDS011;56054;50.968;5.816;2022-12-10T09:55:12;44.00;;;19.17;;
68993;SDS011;56054;50.968;5.816;2022-12-10T09:58:38;43.73;;;19.67;;
68993;SDS011;56054;50.968;5.816;2022-12-10T10:02:31;43.00;;;20.60;;
68993;SDS011;56054;50.968;5.816;2022-12-10T10:05:59;43.47;;;19.67;;
68993;SDS011;56054;50.968;5.816;2022-12-10T10:14:00;39.87;;;17.93;;
68993;SDS011;56054;50.968;5.816;2022-12-10T10:17:25;41.70;;;18.13;;
68993;SDS011;56054;50.968;5.816;2022-12-10T10:20:46;41.13;;;18.60;;
68993;SDS011;56054;50.968;5.816;2022-12-10T10:23:54;36.03;;;16.63;;
68993;SDS011;56054;50.968;5.816;2022-12-10T10:27:35;38.77;;;18.17;;
68993;SDS011;56054;50.968;5.816;2022-12-10T10:30:41;41.07;;;18.17;;
68993;SDS011;56054;50.968;5.816;2022-12-10T10:33:57;46.60;;;21.13;;
68993;SDS011;56054;50.968;5.816;2022-12-10T10:40:50;49.30;;;19.60;;
68993;SDS011;56054;50.968;5.816;2022-12-10T10:44:11;35.47;;;17.40;;
68993;SDS011;56054;50.968;5.816;2022-12-10T10:48:25;46.50;;;20.90;;
68993;SDS011;56054;50.968;5.816;2022-12-10T10:51:31;43.57;;;18.03;;
68993;SDS011;56054;50.968;5.816;2022-12-10T10:55:00;41.23;;;18.27;;
68993;SDS011;56054;50.968;5.816;2022-12-10T10:58:16;38.00;;;17.87;;
68993;SDS011;56054;50.968;5.816;2022-12-10T11:01:26;42.93;;;18.60;;
68993;SDS011;56054;50.968;5.816;2022-12-10T11:05:04;42.63;;;19.53;;
68993;SDS011;56054;50.968;5.816;2022-12-10T11:08:15;49.93;;;20.03;;
68993;SDS011;56054;50.968;5.816;2022-12-10T11:14:46;52.77;;;20.33;;
68993;SDS011;56054;50.968;5.816;2022-12-10T11:18:00;46.03;;;20.17;;
68993;SDS011;56054;50.968;5.816;2022-12-10T11:21:19;50.53;;;22.40;;
68993;SDS011;56054;50.968;5.816;2022-12-10T11:24:28;51.10;;;20.97;;
68993;SDS011;56054;50.968;5.816;2022-12-10T11:27:39;52.17;;;23.07;;
68993;SDS011;56054;50.968;5.816;2022-12-10T11:35:00;56.10;;;21.47;;
68993;SDS011;56054;50.968;5.816;2022-12-10T11:48:55;59.23;;;20.50;;
68993;SDS011;56054;50.968;5.816;2022-12-10T12:13:54;58.37;;;22.77;;
68993;SDS011;56054;50.968;5.816;2022-12-10T12:17:27;57.53;;;23.10;;
68993;SDS011;56054;50.968;5.816;2022-12-10T12:24:32;54.73;;;20.87;;
68993;SDS011;56054;50.968;5.816;2022-12-10T12:28:20;74.03;;;25.70;;
68993;SDS011;56054;50.968;5.816;2022-12-10T12:31:49;69.33;;;25.37;;
68993;SDS011;56054;50.968;5.816;2022-12-10T12:42:50;63.60;;;22.40;;
68993;SDS011;56054;50.968;5.816;2022-12-10T12:49:57;58.37;;;22.83;;
68993;SDS011;56054;50.968;5.816;2022-12-10T12:53:15;53.37;;;19.50;;
68993;SDS011;56054;50.968;5.816;2022-12-10T13:00:05;61.50;;;22.43;;
68993;SDS011;56054;50.968;5.816;2022-12-10T13:03:53;57.97;;;22.70;;
68993;SDS011;56054;50.968;5.816;2022-12-10T13:14:35;52.23;;;20.33;;
68993;SDS011;56054;50.968;5.816;2022-12-10T13:18:38;55.03;;;20.80;;
68993;SDS011;56054;50.968;5.816;2022-12-10T13:32:18;57.53;;;22.90;;
68993;SDS011;56054;50.968;5.816;2022-12-10T13:35:41;68.90;;;23.00;;
68993;SDS011;56054;50.968;5.816;2022-12-10T13:42:31;64.63;;;22.47;;
68993;SDS011;56054;50.968;5.816;2022-12-10T13:45:40;58.93;;;21.80;;
68993;SDS011;56054;50.968;5.816;2022-12-10T13:48:57;55.60;;;21.13;;
68993;SDS011;56054;50.968;5.816;2022-12-10T13:52:06;65.57;;;22.63;;
68993;SDS011;56054;50.968;5.816;2022-12-10T13:55:25;51.97;;;19.27;;
68993;SDS011;56054;50.968;5.816;2022-12-10T14:08:31;47.23;;;19.03;;
68993;SDS011;56054;50.968;5.816;2022-12-10T14:11:57;54.23;;;19.50;;
68993;SDS011;56054;50.968;5.816;2022-12-10T14:15:22;59.60;;;21.10;;
68993;SDS011;56054;50.968;5.816;2022-12-10T14:18:37;61.07;;;21.70;;
68993;SDS011;56054;50.968;5.816;2022-12-10T14:21:50;52.37;;;20.57;;
68993;SDS011;56054;50.968;5.816;2022-12-10T14:25:01;45.77;;;18.27;;
68993;SDS011;56054;50.968;5.816;2022-12-10T14:28:17;50.73;;;19.37;;
68993;SDS011;56054;50.968;5.816;2022-12-10T14:31:26;52.80;;;19.00;;
68993;SDS011;56054;50.968;5.816;2022-12-10T14:34:48;54.53;;;19.33;;
68993;SDS011;56054;50.968;5.816;2022-12-10T14:38:02;53.07;;;20.87;;
68993;SDS011;56054;50.968;5.816;2022-12-10T14:41:19;45.37;;;18.23;;
68993;SDS011;56054;50.968;5.816;2022-12-10T14:44:28;48.73;;;18.27;;
68993;SDS011;56054;50.968;5.816;2022-12-10T14:47:40;46.03;;;17.33;;
68993;SDS011;56054;50.968;5.816;2022-12-10T14:50:47;47.47;;;17.83;;
68993;SDS011;56054;50.968;5.816;2022-12-10T14:53:54;41.20;;;16.90;;
68993;SDS011;56054;50.968;5.816;2022-12-10T14:57:02;49.93;;;16.30;;
68993;SDS011;56054;50.968;5.816;2022-12-10T15:00:21;48.77;;;18.00;;
68993;SDS011;56054;50.968;5.816;2022-12-10T15:03:30;48.67;;;15.30;;
68993;SDS011;56054;50.968;5.816;2022-12-10T15:06:45;42.43;;;17.20;;
68993;SDS011;56054;50.968;5.816;2022-12-10T15:09:59;45.93;;;16.23;;
68993;SDS011;56054;50.968;5.816;2022-12-10T15:13:17;45.57;;;16.80;;
68993;SDS011;56054;50.968;5.816;2022-12-10T15:16:40;51.40;;;17.73;;
68993;SDS011;56054;50.968;5.816;2022-12-10T15:19:50;47.83;;;17.27;;
68993;SDS011;56054;50.968;5.816;2022-12-10T15:23:14;49.10;;;18.70;;
68993;SDS011;56054;50.968;5.816;2022-12-10T15:26:21;46.50;;;17.80;;
68993;SDS011;56054;50.968;5.816;2022-12-10T15:29:30;48.60;;;17.83;;
68993;SDS011;56054;50.968;5.816;2022-12-10T15:32:49;49.40;;;18.00;;
68993;SDS011;56054;50.968;5.816;2022-12-10T15:35:57;52.53;;;17.00;;
68993;SDS011;56054;50.968;5.816;2022-12-10T15:42:43;53.30;;;19.73;;
68993;SDS011;56054;50.968;5.816;2022-12-10T15:45:57;55.77;;;19.97;;
68993;SDS011;56054;50.968;5.816;2022-12-10T15:49:04;56.97;;;18.90;;
68993;SDS011;56054;50.968;5.816;2022-12-10T15:52:20;45.90;;;17.20;;
68993;SDS011;56054;50.968;5.816;2022-12-10T15:55:30;46.23;;;17.97;;
68993;SDS011;56054;50.968;5.816;2022-12-10T15:58:44;50.20;;;18.33;;
68993;SDS011;56054;50.968;5.816;2022-12-10T16:01:51;46.97;;;16.30;;
68993;SDS011;56054;50.968;5.816;2022-12-10T16:08:24;44.80;;;16.97;;
68993;SDS011;56054;50.968;5.816;2022-12-10T16:11:32;50.20;;;16.37;;
68993;SDS011;56054;50.968;5.816;2022-12-10T16:14:40;55.17;;;19.17;;
68993;SDS011;56054;50.968;5.816;2022-12-10T16:18:04;57.27;;;19.40;;
68993;SDS011;56054;50.968;5.816;2022-12-10T16:21:11;51.40;;;17.63;;
68993;SDS011;56054;50.968;5.816;2022-12-10T16:24:25;48.40;;;16.67;;
68993;SDS011;56054;50.968;5.816;2022-12-10T16:27:39;48.10;;;17.90;;
68993;SDS011;56054;50.968;5.816;2022-12-10T16:34:30;48.90;;;18.33;;
68993;SDS011;56054;50.968;5.816;2022-12-10T16:37:45;48.47;;;18.43;;
68993;SDS011;56054;50.968;5.816;2022-12-10T16:41:00;50.30;;;18.57;;
68993;SDS011;56054;50.968;5.816;2022-12-10T16:44:11;53.67;;;18.40;;
68993;SDS011;56054;50.968;5.816;2022-12-10T16:47:18;47.23;;;17.07;;
68993;SDS011;56054;50.968;5.816;2022-12-10T16:50:30;58.27;;;20.00;;
68993;SDS011;56054;50.968;5.816;2022-12-10T16:53:38;59.00;;;20.10;;
68993;SDS011;56054;50.968;5.816;2022-12-10T17:00:49;57.57;;;20.13;;
68993;SDS011;56054;50.968;5.816;2022-12-10T17:21:09;50.83;;;18.27;;
68993;SDS011;56054;50.968;5.816;2022-12-10T18:05:02;62.03;;;18.20;;
68993;SDS011;56054;50.968;5.816;2022-12-10T18:08:15;46.00;;;18.30;;
68993;SDS011;56054;50.968;5.816;2022-12-10T18:11:30;47.70;;;17.97;;
68993;SDS011;56054;50.968;5.816;2022-12-10T18:14:41;53.33;;;17.47;;
68993;SDS011;56054;50.968;5.816;2022-12-10T18:17:52;43.80;;;17.07;;
68993;SDS011;56054;50.968;5.816;2022-12-10T18:21:01;54.77;;;18.40;;
68993;SDS011;56054;50.968;5.816;2022-12-10T18:24:09;50.77;;;18.90;;
68993;SDS011;56054;50.968;5.816;2022-12-10T18:27:21;51.87;;;18.87;;
68993;SDS011;56054;50.968;5.816;2022-12-10T18:30:36;62.53;;;20.10;;
68993;SDS011;56054;50.968;5.816;2022-12-10T18:33:45;55.60;;;19.47;;
68993;SDS011;56054;50.968;5.816;2022-12-10T18:37:08;62.40;;;22.73;;
68993;SDS011;56054;50.968;5.816;2022-12-10T18:40:42;62.87;;;21.47;;
68993;SDS011;56054;50.968;5.816;2022-12-10T19:36:35;53.30;;;19.73;;
68993;SDS011;56054;50.968;5.816;2022-12-10T19:51:38;51.03;;;18.90;;
68993;SDS011;56054;50.968;5.816;2022-12-10T19:54:45;47.27;;;18.13;;
68993;SDS011;56054;50.968;5.816;2022-12-10T19:58:08;46.67;;;16.47;;
68993;SDS011;56054;50.968;5.816;2022-12-10T20:01:42;44.40;;;15.73;;
68993;SDS011;56054;50.968;5.816;2022-12-10T20:04:51;43.87;;;16.67;;
68993;SDS011;56054;50.968;5.816;2022-12-10T20:07:58;48.70;;;16.00;;
68993;SDS011;56054;50.968;5.816;2022-12-10T20:19:27;52.57;;;18.53;;
68993;SDS011;56054;50.968;5.816;2022-12-10T20:22:36;50.90;;;18.90;;
68993;SDS011;56054;50.968;5.816;2022-12-10T20:26:15;48.43;;;17.13;;
68993;SDS011;56054;50.968;5.816;2022-12-10T20:29:26;57.73;;;19.00;;
68993;SDS011;56054;50.968;5.816;2022-12-10T20:32:35;54.77;;;18.07;;
68993;SDS011;56054;50.968;5.816;2022-12-10T20:35:45;55.00;;;17.17;;
68993;SDS011;56054;50.968;5.816;2022-12-10T20:38:53;53.60;;;18.83;;
68993;SDS011;56054;50.968;5.816;2022-12-10T20:50:19;41.70;;;14.83;;
68993;SDS011;56054;50.968;5.816;2022-12-10T20:53:27;43.90;;;15.63;;
68993;SDS011;56054;50.968;5.816;2022-12-10T20:56:33;51.47;;;16.53;;
68993;SDS011;56054;50.968;5.816;2022-12-10T20:59:40;42.63;;;16.33;;
68993;SDS011;56054;50.968;5.816;2022-12-10T21:02:50;41.50;;;14.97;;
68993;SDS011;56054;50.968;5.816;2022-12-10T21:05:58;40.10;;;15.17;;
68993;SDS011;56054;50.968;5.816;2022-12-10T21:09:04;43.20;;;14.87;;
68993;SDS011;56054;50.968;5.816;2022-12-10T21:20:58;42.43;;;14.27;;
68993;SDS011;56054;50.968;5.816;2022-12-10T21:24:08;43.60;;;15.67;;
68993;SDS011;56054;50.968;5.816;2022-12-10T21:27:14;38.33;;;14.93;;
68993;SDS011;56054;50.968;5.816;2022-12-10T21:30:26;43.53;;;14.87;;
68993;SDS011;56054;50.968;5.816;2022-12-10T21:33:33;50.87;;;15.03;;
68993;SDS011;56054;50.968;5.816;2022-12-10T21:36:39;45.00;;;16.83;;
68993;SDS011;56054;50.968;5.816;2022-12-10T21:51:51;41.67;;;15.53;;
68993;SDS011;56054;50.968;5.816;2022-12-10T21:54:58;39.47;;;14.37;;
68993;SDS011;56054;50.968;5.816;2022-12-10T21:58:06;40.90;;;14.43;;
68993;SDS011;56054;50.968;5.816;2022-12-10T22:01:13;38.00;;;14.77;;
68993;SDS011;56054;50.968;5.816;2022-12-10T22:04:19;52.07;;;16.30;;
68993;SDS011;56054;50.968;5.816;2022-12-10T22:07:26;46.67;;;15.80;;
68993;SDS011;56054;50.968;5.816;2022-12-10T22:18:56;50.67;;;18.10;;
68993;SDS011;56054;50.968;5.816;2022-12-10T22:22:02;45.93;;;16.10;;
68993;SDS011;56054;50.968;5.816;2022-12-10T22:25:09;39.67;;;15.73;;
68993;SDS011;56054;50.968;5.816;2022-12-10T22:28:17;40.50;;;17.37;;
68993;SDS011;56054;50.968;5.816;2022-12-10T22:31:24;41.40;;;15.27;;
68993;SDS011;56054;50.968;5.816;2022-12-10T22:34:31;39.60;;;16.00;;
68993;SDS011;56054;50.968;5.816;2022-12-10T22:37:38;40.67;;;15.23;;
68993;SDS011;56054;50.968;5.816;2022-12-10T22:49:16;33.20;;;12.83;;
68993;SDS011;56054;50.968;5.816;2022-12-10T22:52:24;34.27;;;14.00;;
68993;SDS011;56054;50.968;5.816;2022-12-10T22:55:32;36.87;;;14.40;;
68993;SDS011;56054;50.968;5.816;2022-12-10T22:58:39;32.43;;;13.53;;
68993;SDS011;56054;50.968;5.816;2022-12-10T23:01:50;32.83;;;13.70;;
68993;SDS011;56054;50.968;5.816;2022-12-10T23:05:02;34.20;;;13.10;;
68993;SDS011;56054;50.968;5.816;2022-12-10T23:08:11;29.37;;;12.43;;
68993;SDS011;56054;50.968;5.816;2022-12-10T23:19:38;33.43;;;12.63;;
68993;SDS011;56054;50.968;5.816;2022-12-10T23:22:46;37.40;;;14.37;;
68993;SDS011;56054;50.968;5.816;2022-12-10T23:25:52;32.00;;;12.10;;
68993;SDS011;56054;50.968;5.816;2022-12-10T23:29:00;31.27;;;12.53;;
68993;SDS011;56054;50.968;5.816;2022-12-10T23:32:07;31.43;;;13.67;;
68993;SDS011;56054;50.968;5.816;2022-12-10T23:35:20;29.30;;;12.47;;
68993;SDS011;56054;50.968;5.816;2022-12-10T23:38:37;33.00;;;13.10;;
68993;SDS011;56054;50.968;5.816;2022-12-10T23:50:04;33.60;;;11.97;;
68993;SDS011;56054;50.968;5.816;2022-12-10T23:53:16;28.83;;;12.23;;
68993;SDS011;56054;50.968;5.816;2022-12-10T23:56:23;29.43;;;12.07;;
68993;SDS011;56054;50.968;5.816;2022-12-10T23:59:30;27.03;;;11.90;;
